Pays
Station

 

Conditions  météo  pour  San Diego, Brown Field Municipal Airport  -  Etats-Unis    Etats-Unis

  
19 °C
    
 
 

METAR pour San Diego, Brown Field Municipal Airport :

KSDM 230353Z AUTO 27003KT 9SM CLR 19/18 A2990 RMK AO2 SLP121 T01890178

 

Voici le bulletin pour San Diego, Brown Field Municipal Airport - Etats-Unis.
 
Le bulletin a été fait il y a 29 minutes, à 03:53 UTC .
Le vent soufflait à la vitesse de 1.5 mètres par seconde de Ouest (270°).
 
La température était de 19 °C, avec un point de rosée à 18 °C.
La pression atmosphérique était de 1013 hPa.
L'humidité relative était de 93.9%.
 
Le ciel était clair.
 
La visibilité globale était de 14.5 kilomètres.
 

 
 
 

Pays :   A   B   C   D   E   F   G   H   I   J   K   L   M   N   O   P   Q   R   S   T   U   V   W   Y   Z

 

Partenaires :  Info Météo avec Met'info
Météo Marine avec MeteoMarine.net
Infos Site  |  Infos Légales  |  Crédits  |  Confidentialité
Contactez-nous  |  Ajouter aux favoris
© 2013-2018 METAR - Tous droits réservés